createdAt,value
2023-12-05T00:00:31.613Z,30.92
2023-12-05T00:02:36.718Z,39.75
2023-12-05T00:04:44.027Z,32.33
2023-12-05T00:06:51.991Z,30.45
2023-12-05T00:08:57.015Z,29.30
2023-12-05T00:10:59.380Z,36.10
2023-12-05T00:13:05.193Z,30.80
2023-12-05T00:15:11.749Z,32.63
2023-12-05T00:17:19.191Z,35.90
2023-12-05T00:19:24.316Z,35.13
2023-12-05T00:21:29.584Z,28.23
2023-12-05T00:23:34.792Z,33.97
2023-12-05T00:25:39.741Z,35.95
2023-12-05T00:27:44.770Z,36.45
2023-12-05T00:29:50.523Z,32.95
2023-12-05T00:31:55.561Z,33.88
2023-12-05T00:34:01.227Z,29.40
2023-12-05T00:36:06.745Z,35.92
2023-12-05T00:38:11.966Z,33.72
2023-12-05T00:40:19.856Z,49.05
2023-12-05T00:42:24.804Z,40.10
2023-12-05T00:44:31.161Z,32.05
2023-12-05T00:46:33.720Z,37.83
2023-12-05T00:48:38.830Z,30.48
2023-12-05T00:50:46.357Z,41.67
2023-12-05T00:52:51.839Z,37.28
2023-12-05T00:54:57.559Z,42.50
2023-12-05T00:57:05.255Z,36.65
2023-12-05T00:59:10.151Z,34.72
2023-12-05T01:01:17.869Z,34.88
2023-12-05T01:03:23.161Z,35.47
2023-12-05T01:05:30.704Z,31.00
2023-12-05T01:07:36.232Z,38.67
2023-12-05T01:09:38.743Z,37.88
2023-12-05T01:11:43.732Z,36.25
2023-12-05T01:13:51.442Z,39.28
2023-12-05T01:15:57.725Z,35.40
2023-12-05T01:18:03.102Z,40.50
2023-12-05T01:20:12.868Z,45.67
2023-12-05T01:22:18.014Z,35.63
2023-12-05T01:24:20.527Z,40.92
2023-12-05T01:26:25.859Z,36.65
2023-12-05T01:28:31.043Z,34.28
2023-12-05T01:30:38.685Z,41.05
2023-12-05T01:32:43.698Z,35.67
2023-12-05T01:34:48.706Z,41.88
2023-12-05T01:36:53.739Z,35.40
2023-12-05T01:38:58.678Z,40.70
2023-12-05T01:41:01.142Z,38.33
2023-12-05T01:43:06.074Z,40.33
2023-12-05T01:45:12.594Z,27.52
2023-12-05T01:47:20.648Z,47.40
2023-12-05T01:49:29.528Z,34.75
2023-12-05T01:51:36.125Z,42.97
2023-12-05T01:53:43.509Z,41.03
2023-12-05T01:55:48.634Z,42.40
2023-12-05T01:57:55.792Z,45.28
2023-12-05T02:00:01.283Z,38.85
2023-12-05T02:02:07.068Z,42.28
2023-12-05T02:04:14.861Z,51.75
2023-12-05T02:06:20.110Z,46.40
2023-12-05T02:08:26.518Z,48.03
2023-12-05T02:10:31.457Z,45.72
2023-12-05T02:12:36.802Z,46.53
2023-12-05T02:14:41.875Z,45.13
2023-12-05T02:16:54.542Z,49.75
2023-12-05T02:19:07.628Z,50.45
2023-12-05T02:23:45.029Z,53.83
2023-12-05T02:26:11.056Z,41.25
2023-12-05T02:28:22.520Z,42.42
2023-12-05T02:30:29.818Z,52.40
2023-12-05T02:32:34.824Z,49.53
2023-12-05T02:34:40.980Z,41.88
2023-12-05T02:36:54.419Z,43.33
2023-12-05T02:39:13.129Z,52.42
2023-12-05T02:41:21.666Z,37.10
2023-12-05T02:43:37.262Z,44.05
2023-12-05T02:45:43.856Z,40.53
2023-12-05T02:47:51.593Z,38.63
2023-12-05T02:49:57.134Z,38.17
2023-12-05T02:52:03.881Z,40.35
2023-12-05T02:54:10.174Z,36.15
2023-12-05T02:56:18.662Z,49.08
2023-12-05T02:58:23.700Z,45.22
2023-12-05T03:00:31.358Z,34.80
2023-12-05T03:02:33.878Z,45.45
2023-12-05T03:04:39.286Z,46.25
2023-12-05T03:06:44.165Z,37.13
2023-12-05T03:08:46.580Z,41.60
2023-12-05T03:10:58.774Z,45.88
2023-12-05T03:13:08.559Z,33.45
2023-12-05T03:15:14.274Z,39.53
2023-12-05T03:17:21.958Z,36.42
2023-12-05T03:19:26.996Z,39.33
2023-12-05T03:21:32.703Z,49.10
2023-12-05T03:23:37.885Z,41.47
2023-12-05T03:25:44.525Z,40.58
2023-12-05T03:27:50.304Z,35.75
2023-12-05T03:29:55.480Z,35.47
2023-12-05T03:32:00.404Z,50.20
2023-12-05T03:34:08.673Z,27.80
2023-12-05T03:36:16.968Z,42.53
2023-12-05T03:38:21.965Z,45.10
2023-12-05T03:40:24.563Z,32.47
2023-12-05T03:42:29.648Z,39.40
2023-12-05T03:44:34.945Z,35.75
2023-12-05T03:46:39.873Z,37.03
2023-12-05T03:48:47.858Z,33.92
2023-12-05T03:50:55.540Z,35.97
2023-12-05T03:53:00.524Z,36.10
2023-12-05T03:55:05.799Z,33.63
2023-12-05T03:57:12.419Z,33.60
2023-12-05T03:59:17.366Z,36.22
2023-12-05T04:01:22.263Z,30.92
2023-12-05T04:03:27.617Z,34.30
2023-12-05T04:05:32.648Z,38.22
2023-12-05T04:07:41.420Z,30.38
2023-12-05T04:09:43.777Z,37.00
2023-12-05T04:11:48.686Z,26.00
2023-12-05T04:13:53.652Z,33.15
2023-12-05T04:15:58.644Z,34.30
2023-12-05T04:18:03.559Z,30.50
2023-12-05T04:20:13.403Z,27.10
2023-12-05T04:22:15.935Z,34.55
2023-12-05T04:24:23.445Z,31.27
2023-12-05T04:26:31.651Z,23.55
2023-12-05T04:28:36.652Z,33.22
2023-12-05T04:30:41.834Z,24.88
2023-12-05T04:32:46.793Z,34.22
2023-12-05T04:34:49.079Z,31.15
2023-12-05T04:36:54.066Z,38.38
2023-12-05T04:38:58.943Z,29.25
2023-12-05T04:41:07.668Z,32.25
2023-12-05T04:43:13.119Z,40.63
2023-12-05T04:45:18.296Z,35.42
2023-12-05T04:47:23.638Z,29.48
2023-12-05T04:49:29.175Z,35.35
2023-12-05T04:51:34.617Z,43.13
2023-12-05T04:53:39.720Z,31.80
2023-12-05T04:55:44.972Z,32.80
2023-12-05T04:57:52.733Z,32.47
2023-12-05T04:59:57.660Z,27.17
2023-12-05T05:02:03.207Z,40.88
2023-12-05T05:04:08.635Z,38.00
2023-12-05T05:06:14.678Z,37.60
2023-12-05T05:08:19.653Z,37.60
2023-12-05T05:10:24.626Z,32.30
2023-12-05T05:12:29.668Z,31.80
2023-12-05T05:14:37.515Z,31.55
2023-12-05T05:16:43.882Z,32.50
2023-12-05T05:18:46.307Z,37.38
2023-12-05T05:20:51.260Z,36.28
2023-12-05T05:22:56.169Z,35.33
2023-12-05T05:25:01.215Z,40.05
2023-12-05T05:27:06.491Z,40.70
2023-12-05T05:29:11.985Z,36.13
2023-12-05T05:31:22.756Z,37.88
2023-12-05T05:33:27.893Z,33.30
2023-12-05T05:35:33.207Z,50.47
2023-12-05T05:37:38.184Z,39.22
2023-12-05T05:39:43.423Z,36.28
2023-12-05T05:41:48.595Z,40.67
2023-12-05T05:43:53.385Z,31.20
2023-12-05T05:45:58.400Z,40.65
2023-12-05T05:48:06.168Z,47.05
2023-12-05T05:50:13.879Z,34.08
2023-12-05T05:52:19.184Z,39.40
2023-12-05T05:54:24.798Z,46.83
2023-12-05T05:56:29.807Z,36.42
2023-12-05T05:58:34.651Z,37.55
2023-12-05T06:00:39.557Z,44.47
2023-12-05T06:02:44.511Z,42.72
2023-12-05T06:04:52.160Z,32.30
2023-12-05T06:06:58.333Z,43.35
2023-12-05T06:09:03.469Z,40.20
2023-12-05T06:11:09.142Z,29.27
2023-12-05T06:13:11.557Z,38.97
2023-12-05T06:15:17.059Z,43.92
2023-12-05T06:17:22.142Z,44.33
2023-12-05T06:19:27.115Z,46.95
2023-12-05T06:21:34.697Z,42.28
2023-12-05T06:23:37.155Z,36.83
2023-12-05T06:25:44.921Z,45.25
2023-12-05T06:27:49.991Z,38.90
2023-12-05T06:29:54.913Z,49.92
2023-12-05T06:32:02.742Z,41.25
2023-12-05T06:34:07.677Z,37.63
2023-12-05T06:36:13.521Z,45.65
2023-12-05T06:38:21.015Z,42.47
2023-12-05T06:40:26.211Z,45.67
2023-12-05T06:42:31.823Z,38.58
2023-12-05T06:44:36.770Z,34.60
2023-12-05T06:46:41.798Z,42.30
2023-12-05T06:48:48.231Z,38.13
2023-12-05T06:50:53.289Z,50.38
2023-12-05T06:52:58.838Z,46.13
2023-12-05T06:55:06.924Z,36.05
2023-12-05T06:57:14.689Z,43.83
2023-12-05T06:59:19.660Z,40.75
2023-12-05T07:01:24.652Z,51.05
2023-12-05T07:03:29.863Z,37.60
2023-12-05T07:05:34.985Z,37.75
2023-12-05T07:07:40.121Z,32.92
2023-12-05T07:09:47.494Z,36.92
2023-12-05T07:11:58.241Z,33.30
2023-12-05T07:14:03.596Z,30.42
2023-12-05T07:16:10.314Z,36.83
2023-12-05T07:18:15.929Z,36.17
2023-12-05T07:20:20.967Z,35.40
2023-12-05T07:22:27.255Z,39.85
2023-12-05T07:24:32.759Z,34.03
2023-12-05T07:26:38.002Z,47.92
2023-12-05T07:28:47.929Z,40.97
2023-12-05T07:30:55.160Z,42.20
2023-12-05T07:33:01.640Z,47.80
2023-12-05T07:35:06.935Z,40.63
2023-12-05T07:37:14.727Z,52.50
2023-12-05T07:39:20.082Z,29.77
2023-12-05T07:41:25.216Z,40.22
2023-12-05T07:43:30.342Z,39.50
2023-12-05T07:45:38.520Z,47.95
2023-12-05T07:47:44.871Z,43.05
2023-12-05T07:49:50.028Z,40.55
2023-12-05T07:51:54.956Z,49.08
2023-12-05T07:53:58.254Z,52.30
2023-12-05T07:56:04.434Z,51.65
2023-12-05T07:58:09.754Z,41.53
2023-12-05T08:00:19.588Z,51.55
2023-12-05T08:02:27.272Z,38.42
2023-12-05T08:04:32.930Z,43.85
2023-12-05T08:06:40.571Z,35.35
2023-12-05T08:08:45.831Z,53.35
2023-12-05T08:10:52.602Z,49.30
2023-12-05T08:12:58.165Z,37.10
2023-12-05T08:15:00.552Z,45.15
2023-12-05T08:17:06.408Z,49.08
2023-12-05T08:19:16.416Z,47.97
2023-12-05T08:21:21.528Z,49.42
2023-12-05T08:23:23.938Z,55.40
2023-12-05T08:25:28.980Z,44.88
2023-12-05T08:27:35.179Z,67.38
2023-12-05T08:29:40.999Z,40.45
2023-12-05T08:31:46.120Z,49.88
2023-12-05T08:33:51.057Z,45.53
2023-12-05T08:35:58.947Z,41.58
2023-12-05T08:38:04.341Z,40.45
2023-12-05T08:40:11.244Z,44.60
2023-12-05T08:42:19.654Z,50.50
2023-12-05T08:44:25.073Z,41.95
2023-12-05T08:46:29.949Z,41.20
2023-12-05T08:48:36.124Z,46.90
2023-12-05T08:50:45.173Z,44.38
2023-12-05T08:52:52.893Z,39.53
2023-12-05T08:54:58.130Z,45.67
2023-12-05T08:57:03.536Z,45.58
2023-12-05T08:59:08.532Z,49.63
2023-12-05T09:01:14.321Z,39.95
2023-12-05T09:03:20.453Z,44.88
2023-12-05T09:05:26.144Z,40.13
2023-12-05T09:07:31.778Z,50.40
2023-12-05T09:09:42.787Z,50.97
2023-12-05T09:11:48.736Z,60.05
2023-12-05T09:13:51.229Z,55.17
2023-12-05T09:15:56.783Z,44.10
2023-12-05T09:18:03.106Z,43.80
2023-12-05T09:20:11.296Z,47.95
2023-12-05T09:22:16.421Z,49.22
2023-12-05T09:24:21.442Z,41.40
2023-12-05T09:26:29.049Z,33.80
2023-12-05T09:28:36.047Z,49.30
2023-12-05T09:30:41.457Z,35.95
2023-12-05T09:32:46.727Z,42.83
2023-12-05T09:34:51.722Z,44.97
2023-12-05T09:36:59.216Z,45.45
2023-12-05T09:39:05.615Z,49.55
2023-12-05T09:41:13.493Z,42.38
2023-12-05T09:43:29.264Z,61.05
2023-12-05T09:45:41.624Z,50.95
2023-12-05T09:47:44.421Z,35.38
2023-12-05T09:51:56.643Z,44.13
2023-12-05T09:54:00.788Z,46.75
2023-12-05T09:56:06.294Z,39.58
2023-12-05T09:58:13.613Z,44.72
2023-12-05T10:00:21.984Z,48.85
2023-12-05T10:02:28.741Z,45.40
2023-12-05T10:04:45.735Z,49.97
2023-12-05T10:06:52.657Z,49.28
2023-12-05T10:08:58.928Z,62.88
2023-12-05T10:11:05.729Z,56.83
2023-12-05T10:13:13.022Z,62.30
2023-12-05T10:15:21.992Z,46.42
2023-12-05T10:17:27.890Z,52.58
2023-12-05T10:19:34.331Z,58.83
2023-12-05T10:21:40.945Z,50.03
2023-12-05T10:23:46.170Z,45.00
2023-12-05T10:25:51.251Z,56.10
2023-12-05T10:28:06.827Z,56.17
2023-12-05T10:30:10.283Z,51.58
2023-12-05T10:32:18.031Z,56.08
2023-12-05T10:34:23.648Z,47.92
2023-12-05T10:36:29.457Z,64.50
2023-12-05T10:38:34.474Z,63.70
2023-12-05T10:41:03.371Z,57.03
2023-12-05T10:43:05.668Z,49.97
2023-12-05T10:45:14.659Z,68.30
2023-12-05T10:47:23.798Z,67.43
2023-12-05T10:49:28.352Z,54.40
2023-12-05T10:51:34.897Z,57.80
2023-12-05T10:53:40.677Z,46.80
2023-12-05T10:55:43.433Z,47.65
2023-12-05T10:59:53.988Z,52.35
2023-12-05T11:02:00.417Z,52.78
2023-12-05T11:04:11.179Z,55.45
2023-12-05T11:06:16.456Z,48.33
2023-12-05T11:08:18.932Z,59.25
2023-12-05T11:10:24.246Z,49.08
2023-12-05T11:12:29.920Z,45.78
2023-12-05T11:14:38.112Z,44.97
2023-12-05T11:16:50.006Z,53.53
2023-12-05T11:19:07.289Z,45.70
2023-12-05T11:21:33.009Z,49.45
2023-12-05T11:23:55.573Z,55.33
2023-12-05T11:26:12.321Z,55.53
2023-12-05T11:28:32.865Z,47.60
2023-12-05T11:30:57.218Z,50.10
2023-12-05T11:33:14.806Z,51.08
2023-12-05T11:35:33.347Z,35.92
2023-12-05T11:37:57.015Z,53.05
2023-12-05T11:40:02.987Z,62.83
2023-12-05T11:42:11.177Z,45.08
2023-12-05T11:44:23.075Z,53.47
2023-12-05T11:46:28.412Z,52.22
2023-12-05T11:48:35.449Z,43.97
2023-12-05T11:50:45.583Z,61.88
2023-12-05T11:52:53.826Z,37.33
2023-12-05T11:55:01.301Z,50.33
2023-12-05T11:57:13.649Z,56.50
2023-12-05T11:59:26.487Z,59.97
2023-12-05T12:01:31.580Z,44.47
2023-12-05T12:03:51.519Z,51.28
2023-12-05T12:06:05.384Z,53.05
2023-12-05T12:08:13.186Z,48.83
2023-12-05T12:10:19.454Z,45.75
2023-12-05T12:12:25.257Z,46.58
2023-12-05T12:14:31.326Z,57.85
2023-12-05T12:16:36.910Z,55.92
2023-12-05T12:18:48.533Z,56.35
2023-12-05T12:20:59.011Z,50.95
2023-12-05T12:23:04.138Z,61.05
2023-12-05T12:25:15.182Z,61.83
2023-12-05T12:27:23.180Z,50.65
2023-12-05T12:29:29.711Z,64.10
2023-12-05T12:31:36.778Z,50.45
2023-12-05T12:33:42.485Z,63.05
2023-12-05T12:35:49.028Z,46.88
2023-12-05T12:37:55.051Z,42.13
2023-12-05T12:39:58.423Z,55.45
2023-12-05T12:42:08.546Z,44.65
2023-12-05T12:44:13.801Z,46.22
2023-12-05T12:46:19.014Z,49.45
2023-12-05T12:48:21.834Z,50.08
2023-12-05T12:50:27.047Z,49.63
2023-12-05T12:52:32.104Z,51.00
2023-12-05T12:54:40.312Z,47.22
2023-12-05T12:56:45.779Z,49.20
2023-12-05T12:58:53.415Z,51.65
2023-12-05T13:00:55.767Z,47.50
2023-12-05T13:03:00.891Z,49.78
2023-12-05T13:05:06.211Z,52.95
2023-12-05T13:07:13.131Z,46.22
2023-12-05T13:09:20.849Z,45.90
2023-12-05T13:11:23.521Z,45.42
2023-12-05T13:13:29.108Z,55.10
2023-12-05T13:15:38.309Z,60.53
2023-12-05T13:17:59.033Z,53.67
2023-12-05T13:20:09.664Z,56.45
2023-12-05T13:22:16.610Z,60.38
2023-12-05T13:24:22.777Z,46.35
2023-12-05T13:26:28.134Z,40.42
2023-12-05T13:28:33.394Z,50.63
2023-12-05T13:30:41.420Z,49.53
2023-12-05T13:32:46.934Z,51.65
2023-12-05T13:34:51.982Z,43.13
2023-12-05T13:36:58.685Z,51.70
2023-12-05T13:39:01.480Z,57.08
2023-12-05T13:43:11.604Z,46.38
2023-12-05T13:45:20.052Z,56.70
2023-12-05T13:47:28.684Z,49.83
2023-12-05T13:49:34.006Z,42.35
2023-12-05T13:51:39.114Z,41.38
2023-12-05T13:53:47.516Z,45.30
2023-12-05T13:55:52.704Z,53.63
2023-12-05T13:57:57.720Z,52.17
2023-12-05T14:00:04.309Z,48.45
2023-12-05T14:02:09.974Z,55.50
2023-12-05T14:04:19.037Z,47.40
2023-12-05T14:06:25.551Z,49.45
2023-12-05T14:08:30.750Z,46.88
2023-12-05T14:10:36.415Z,47.13
2023-12-05T14:12:41.833Z,57.63
2023-12-05T14:14:46.808Z,41.22
2023-12-05T14:16:51.950Z,37.30
2023-12-05T14:18:57.199Z,42.22
2023-12-05T14:21:05.907Z,47.67
2023-12-05T14:23:13.530Z,47.40
2023-12-05T14:25:19.584Z,48.40
2023-12-05T14:27:26.346Z,41.20
2023-12-05T14:29:31.450Z,41.65
2023-12-05T14:31:36.199Z,39.55
2023-12-05T14:33:41.426Z,41.20
2023-12-05T14:35:46.441Z,51.00
2023-12-05T14:37:54.584Z,43.97
2023-12-05T14:39:59.895Z,39.17
2023-12-05T14:42:05.312Z,46.13
2023-12-05T14:44:07.577Z,32.83
2023-12-05T14:46:14.391Z,39.38
2023-12-05T14:48:19.637Z,44.40
2023-12-05T14:50:24.743Z,49.03
2023-12-05T14:52:30.346Z,45.15
2023-12-05T14:54:38.727Z,45.45
2023-12-05T14:56:44.563Z,41.60
2023-12-05T14:58:50.028Z,41.15
2023-12-05T15:01:00.117Z,41.17
2023-12-05T15:03:05.458Z,37.88
2023-12-05T15:05:13.451Z,42.08
2023-12-05T15:07:18.768Z,37.85
2023-12-05T15:09:25.126Z,38.40
2023-12-05T15:11:33.797Z,38.88
2023-12-05T15:13:36.287Z,29.65
2023-12-05T15:15:41.534Z,54.80
2023-12-05T15:17:46.875Z,34.75
2023-12-05T15:20:18.224Z,34.83
2023-12-05T15:22:14.427Z,38.20
2023-12-05T15:24:19.590Z,35.13
2023-12-05T15:26:27.137Z,37.20
2023-12-05T15:28:39.410Z,31.38
2023-12-05T15:30:44.493Z,37.22
2023-12-05T15:32:54.961Z,41.72
2023-12-05T15:35:00.272Z,40.78
2023-12-05T15:37:05.645Z,47.20
2023-12-05T15:39:11.297Z,38.30
2023-12-05T15:41:18.167Z,40.80
2023-12-05T15:43:23.125Z,43.50
2023-12-05T15:45:30.795Z,53.85
2023-12-05T15:47:35.836Z,62.63
2023-12-05T15:49:41.400Z,47.60
2023-12-05T15:51:46.980Z,46.90
2023-12-05T15:53:52.018Z,91.82
2023-12-05T15:55:54.588Z,70.72
2023-12-05T15:58:08.816Z,94.32
2023-12-05T16:00:14.889Z,68.68
2023-12-05T16:02:24.088Z,48.03
2023-12-05T16:04:29.265Z,41.13
2023-12-05T16:06:31.839Z,30.95
2023-12-05T16:08:36.781Z,40.20
2023-12-05T16:10:43.716Z,36.95
2023-12-05T16:12:53.025Z,33.45
2023-12-05T16:14:58.126Z,39.70
2023-12-05T16:17:05.131Z,37.17
2023-12-05T16:19:14.254Z,39.75
2023-12-05T16:21:24.623Z,37.47
2023-12-05T16:23:31.171Z,31.52
2023-12-05T16:25:36.384Z,38.65
2023-12-05T16:27:41.680Z,45.47
2023-12-05T16:29:47.679Z,34.85
2023-12-05T16:31:54.226Z,38.53
2023-12-05T16:34:00.267Z,44.38
2023-12-05T16:36:12.427Z,42.50
2023-12-05T16:38:17.337Z,46.42
2023-12-05T16:40:23.977Z,34.22
2023-12-05T16:42:29.016Z,34.70
2023-12-05T16:44:34.282Z,37.30
2023-12-05T16:46:36.840Z,29.92
2023-12-05T16:48:41.852Z,40.40
2023-12-05T16:50:46.842Z,40.10
2023-12-05T16:52:51.799Z,35.53
2023-12-05T16:54:58.371Z,33.25
2023-12-05T16:57:03.321Z,35.33
2023-12-05T16:59:13.218Z,41.70
2023-12-05T17:01:23.713Z,38.95
2023-12-05T17:05:34.865Z,30.83
2023-12-05T17:07:39.956Z,34.75
2023-12-05T17:10:00.842Z,38.70
2023-12-05T17:12:06.542Z,39.33
2023-12-05T17:14:11.761Z,35.67
2023-12-05T17:16:16.659Z,33.90
2023-12-05T17:18:25.804Z,48.50
2023-12-05T17:20:28.144Z,40.30
2023-12-05T17:22:33.171Z,31.67
2023-12-05T17:24:38.910Z,34.90
2023-12-05T17:26:43.863Z,44.08
2023-12-05T17:28:49.145Z,35.30
2023-12-05T17:30:56.270Z,33.05
2023-12-05T17:33:01.858Z,39.83
2023-12-05T17:35:09.297Z,48.92
2023-12-05T17:37:14.359Z,37.50
2023-12-05T17:39:20.154Z,38.05
2023-12-05T17:41:25.175Z,40.80
2023-12-05T17:43:32.634Z,33.42
2023-12-05T17:45:38.217Z,40.83
2023-12-05T17:47:41.914Z,37.03
2023-12-05T17:49:46.803Z,27.48
2023-12-05T17:51:51.934Z,26.27
2023-12-05T17:53:56.931Z,44.78
2023-12-05T17:56:03.632Z,39.75
2023-12-05T17:58:09.063Z,37.67
2023-12-05T18:00:17.472Z,37.05
2023-12-05T18:02:24.582Z,26.75
2023-12-05T18:04:29.583Z,35.58
2023-12-05T18:06:34.530Z,35.25
2023-12-05T18:08:37.394Z,31.83
2023-12-05T18:12:48.184Z,36.35
2023-12-05T18:14:53.385Z,31.60
2023-12-05T18:16:58.360Z,36.80
2023-12-05T18:19:07.656Z,33.95
2023-12-05T18:21:13.937Z,31.88
2023-12-05T18:23:19.055Z,31.00
2023-12-05T18:25:24.830Z,37.78
2023-12-05T18:27:30.051Z,31.42
2023-12-05T18:29:35.130Z,23.88
2023-12-05T18:31:44.095Z,26.33
2023-12-05T18:33:52.068Z,33.58
2023-12-05T18:35:57.639Z,34.55
2023-12-05T18:38:02.670Z,30.45
2023-12-05T18:40:09.581Z,25.77
2023-12-05T18:42:15.415Z,33.10
2023-12-05T18:44:20.550Z,32.13
2023-12-05T18:46:27.705Z,37.22
2023-12-05T18:48:33.146Z,36.35
2023-12-05T18:50:41.406Z,28.10
2023-12-05T18:52:47.206Z,36.00
2023-12-05T18:54:49.628Z,32.65
2023-12-05T18:56:54.991Z,31.20
2023-12-05T18:59:02.822Z,35.58
2023-12-05T19:01:08.850Z,33.65
2023-12-05T19:03:13.835Z,31.10
2023-12-05T19:05:18.963Z,39.90
2023-12-05T19:07:29.433Z,35.17
2023-12-05T19:09:34.836Z,36.47
2023-12-05T19:11:39.876Z,80.35
2023-12-05T19:13:45.549Z,68.72
2023-12-05T19:15:51.096Z,39.28
2023-12-05T19:17:54.838Z,39.83
2023-12-05T19:20:02.949Z,35.28
2023-12-05T19:22:06.005Z,35.92
2023-12-05T19:24:13.657Z,34.53
2023-12-05T19:26:26.789Z,32.78
2023-12-05T19:30:48.259Z,30.13
2023-12-05T19:32:58.840Z,40.25
2023-12-05T19:35:08.625Z,32.00
2023-12-05T19:37:14.016Z,37.78
2023-12-05T19:39:22.041Z,33.35
2023-12-05T19:41:28.887Z,36.88
2023-12-05T19:43:33.965Z,44.35
2023-12-05T19:45:39.041Z,40.03
2023-12-05T19:47:44.372Z,42.70
2023-12-05T19:49:49.329Z,40.80
2023-12-05T19:51:51.772Z,48.55
2023-12-05T19:53:56.960Z,40.08
2023-12-05T19:56:04.570Z,37.55
2023-12-05T19:58:09.912Z,44.00
2023-12-05T20:00:16.476Z,36.08
2023-12-05T20:02:21.752Z,35.88
2023-12-05T20:04:24.342Z,42.60
2023-12-05T20:08:31.708Z,45.08
2023-12-05T20:10:36.841Z,35.20
2023-12-05T20:12:44.992Z,33.38
2023-12-05T20:14:49.915Z,36.47
2023-12-05T20:16:59.585Z,35.88
2023-12-05T20:19:04.687Z,38.58
2023-12-05T20:21:07.148Z,44.83
2023-12-05T20:23:12.533Z,46.45
2023-12-05T20:25:17.699Z,39.08
2023-12-05T20:27:23.031Z,48.65
2023-12-05T20:29:30.880Z,35.95
2023-12-05T20:31:38.361Z,44.33
2023-12-05T20:33:43.542Z,47.45
2023-12-05T20:35:48.610Z,35.03
2023-12-05T20:37:53.479Z,44.03
2023-12-05T20:39:55.811Z,44.20
2023-12-05T20:42:00.988Z,45.92
2023-12-05T20:44:06.680Z,50.92
2023-12-05T20:46:18.922Z,42.13
2023-12-05T20:48:23.902Z,37.72
2023-12-05T20:50:29.473Z,35.60
2023-12-05T20:52:38.054Z,42.88
2023-12-05T20:54:43.476Z,39.85
2023-12-05T20:56:48.591Z,45.72
2023-12-05T20:58:53.650Z,44.53
2023-12-05T21:00:58.774Z,34.67
2023-12-05T21:03:08.587Z,40.58
2023-12-05T21:05:14.056Z,44.47
2023-12-05T21:07:21.151Z,48.40
2023-12-05T21:09:26.640Z,43.20
2023-12-05T21:11:34.429Z,35.00
2023-12-05T21:13:40.367Z,47.47
2023-12-05T21:15:45.591Z,47.72
2023-12-05T21:17:50.896Z,38.83
2023-12-05T21:20:01.190Z,48.70
2023-12-05T21:22:06.377Z,35.28
2023-12-05T21:24:14.019Z,47.03
2023-12-05T21:26:24.319Z,34.65
2023-12-05T21:28:29.494Z,35.42
2023-12-05T21:30:34.605Z,40.08
2023-12-05T21:32:39.924Z,42.35
2023-12-05T21:34:47.575Z,33.83
2023-12-05T21:36:55.926Z,39.50
2023-12-05T21:39:00.774Z,35.42
2023-12-05T21:41:05.895Z,40.13
2023-12-05T21:43:10.959Z,39.50
2023-12-05T21:45:17.036Z,44.67
2023-12-05T21:47:23.549Z,37.45
2023-12-05T21:49:29.237Z,39.42
2023-12-05T21:51:35.915Z,33.70
2023-12-05T21:53:43.851Z,31.50
2023-12-05T21:55:48.725Z,30.95
2023-12-05T21:57:53.792Z,30.17
2023-12-05T21:59:58.718Z,32.53
2023-12-05T22:02:03.679Z,31.95
2023-12-05T22:04:10.060Z,26.65
2023-12-05T22:06:16.580Z,39.25
2023-12-05T22:08:19.071Z,30.85
2023-12-05T22:10:26.766Z,31.85
2023-12-05T22:12:32.118Z,31.35
2023-12-05T22:14:34.575Z,33.83
2023-12-05T22:16:39.580Z,25.60
2023-12-05T22:18:44.279Z,33.60
2023-12-05T22:20:49.386Z,40.40
2023-12-05T22:22:54.294Z,28.27
2023-12-05T22:24:59.204Z,35.13
2023-12-05T22:27:07.626Z,32.85
2023-12-05T22:29:17.123Z,32.58
2023-12-05T22:31:31.609Z,35.58
2023-12-05T22:33:34.059Z,30.55
2023-12-05T22:35:43.556Z,32.53
2023-12-05T22:37:48.365Z,31.27
2023-12-05T22:39:53.295Z,41.35
2023-12-05T22:41:58.434Z,42.20
2023-12-05T22:44:15.496Z,31.83
2023-12-05T22:46:20.626Z,40.65
2023-12-05T22:48:26.085Z,36.45
2023-12-05T22:50:31.074Z,38.45
2023-12-05T22:52:35.985Z,40.33
2023-12-05T22:54:43.476Z,36.15
2023-12-05T22:56:48.932Z,35.25
2023-12-05T22:58:54.042Z,28.83
2023-12-05T23:01:02.354Z,38.80
2023-12-05T23:03:06.022Z,30.27
2023-12-05T23:05:12.611Z,41.08
2023-12-05T23:07:17.992Z,31.50
2023-12-05T23:09:22.985Z,31.33
2023-12-05T23:11:27.906Z,35.88
2023-12-05T23:13:32.738Z,37.22
2023-12-05T23:15:38.223Z,36.78
2023-12-05T23:17:45.873Z,33.15
2023-12-05T23:19:48.823Z,37.08
2023-12-05T23:21:54.111Z,41.80
2023-12-05T23:23:58.360Z,31.13
2023-12-05T23:26:04.804Z,35.50
2023-12-05T23:28:12.026Z,33.58
2023-12-05T23:30:20.884Z,28.52
2023-12-05T23:32:25.929Z,30.83
2023-12-05T23:34:33.640Z,29.70
2023-12-05T23:36:38.754Z,32.75
2023-12-05T23:38:43.784Z,35.15
2023-12-05T23:40:48.992Z,33.85
2023-12-05T23:42:54.345Z,31.05
2023-12-05T23:44:59.674Z,33.28
2023-12-05T23:47:04.870Z,31.40
2023-12-05T23:49:07.294Z,29.90
2023-12-05T23:51:20.492Z,30.02
2023-12-05T23:55:31.418Z,31.10
2023-12-05T23:57:36.362Z,24.50
2023-12-05T23:59:43.090Z,28.35
